sensor_id;sensor_type;location;lat;lon;timestamp;pressure;altitude;pressure_sealevel;temperature;humidity
38786;BME280;24535;45.508;12.252;2023-04-10T00:00:05;102285.19;;;14.60;49.01
38786;BME280;24535;45.508;12.252;2023-04-10T00:02:31;102281.09;;;14.54;49.57
38786;BME280;24535;45.508;12.252;2023-04-10T00:04:59;102278.69;;;14.50;49.76
38786;BME280;24535;45.508;12.252;2023-04-10T00:07:25;102274.28;;;14.50;49.47
38786;BME280;24535;45.508;12.252;2023-04-10T00:09:51;102271.63;;;14.50;49.94
38786;BME280;24535;45.508;12.252;2023-04-10T00:12:17;102268.03;;;14.51;49.59
38786;BME280;24535;45.508;12.252;2023-04-10T00:14:42;102271.69;;;14.49;50.54
38786;BME280;24535;45.508;12.252;2023-04-10T00:17:08;102270.81;;;14.48;49.90
38786;BME280;24535;45.508;12.252;2023-04-10T00:19:34;102271.09;;;14.44;49.69
38786;BME280;24535;45.508;12.252;2023-04-10T00:21:59;102272.31;;;14.38;49.53
38786;BME280;24535;45.508;12.252;2023-04-10T00:24:25;102276.94;;;14.34;50.34
38786;BME280;24535;45.508;12.252;2023-04-10T00:26:50;102273.50;;;14.32;49.86
38786;BME280;24535;45.508;12.252;2023-04-10T00:29:16;102276.41;;;14.28;50.83
38786;BME280;24535;45.508;12.252;2023-04-10T00:31:41;102272.97;;;14.26;50.67
38786;BME280;24535;45.508;12.252;2023-04-10T00:34:07;102267.78;;;14.24;50.64
38786;BME280;24535;45.508;12.252;2023-04-10T00:36:33;102270.53;;;14.23;50.20
38786;BME280;24535;45.508;12.252;2023-04-10T00:38:59;102275.84;;;14.23;50.05
38786;BME280;24535;45.508;12.252;2023-04-10T00:41:25;102266.84;;;14.25;50.65
38786;BME280;24535;45.508;12.252;2023-04-10T00:43:55;102273.75;;;14.28;50.81
38786;BME280;24535;45.508;12.252;2023-04-10T00:46:22;102272.06;;;14.27;50.47
38786;BME280;24535;45.508;12.252;2023-04-10T00:48:48;102270.16;;;14.29;50.35
38786;BME280;24535;45.508;12.252;2023-04-10T00:51:14;102269.41;;;14.27;50.66
38786;BME280;24535;45.508;12.252;2023-04-10T00:53:40;102272.97;;;14.26;49.70
38786;BME280;24535;45.508;12.252;2023-04-10T00:56:06;102273.09;;;14.24;49.96
38786;BME280;24535;45.508;12.252;2023-04-10T00:58:32;102272.41;;;14.21;50.44
38786;BME280;24535;45.508;12.252;2023-04-10T01:00:57;102269.91;;;14.18;49.98
38786;BME280;24535;45.508;12.252;2023-04-10T01:03:23;102265.94;;;14.10;49.30
38786;BME280;24535;45.508;12.252;2023-04-10T01:06:14;102273.88;;;14.10;49.51
38786;BME280;24535;45.508;12.252;2023-04-10T01:09:10;102275.84;;;14.07;49.31
38786;BME280;24535;45.508;12.252;2023-04-10T01:11:54;102276.13;;;14.02;49.75
38786;BME280;24535;45.508;12.252;2023-04-10T01:17:17;102273.81;;;13.96;50.03
38786;BME280;24535;45.508;12.252;2023-04-10T01:20:08;102266.13;;;13.92;49.80
38786;BME280;24535;45.508;12.252;2023-04-10T01:25:17;102262.09;;;13.84;49.52
38786;BME280;24535;45.508;12.252;2023-04-10T01:30:56;102270.72;;;13.72;48.92
38786;BME280;24535;45.508;12.252;2023-04-10T01:33:27;102274.44;;;13.70;49.47
38786;BME280;24535;45.508;12.252;2023-04-10T01:35:55;102271.09;;;13.66;48.89
38786;BME280;24535;45.508;12.252;2023-04-10T01:38:23;102264.41;;;13.59;48.97
38786;BME280;24535;45.508;12.252;2023-04-10T01:40:52;102261.84;;;13.57;49.28
38786;BME280;24535;45.508;12.252;2023-04-10T01:43:19;102259.69;;;13.48;48.97
38786;BME280;24535;45.508;12.252;2023-04-10T01:45:47;102255.44;;;13.46;48.86
38786;BME280;24535;45.508;12.252;2023-04-10T01:48:15;102266.19;;;13.43;48.98
38786;BME280;24535;45.508;12.252;2023-04-10T01:50:44;102269.09;;;13.38;48.83
38786;BME280;24535;45.508;12.252;2023-04-10T01:53:10;102252.41;;;13.36;48.98
38786;BME280;24535;45.508;12.252;2023-04-10T01:55:36;102257.03;;;13.32;49.53
38786;BME280;24535;45.508;12.252;2023-04-10T01:58:02;102258.81;;;13.32;49.13
38786;BME280;24535;45.508;12.252;2023-04-10T02:00:29;102262.41;;;13.31;49.22
38786;BME280;24535;45.508;12.252;2023-04-10T02:02:54;102265.22;;;13.28;48.76
38786;BME280;24535;45.508;12.252;2023-04-10T02:05:25;102259.22;;;13.24;49.14
38786;BME280;24535;45.508;12.252;2023-04-10T02:08:03;102258.44;;;13.22;49.50
38786;BME280;24535;45.508;12.252;2023-04-10T02:10:36;102261.19;;;13.21;49.46
38786;BME280;24535;45.508;12.252;2023-04-10T02:13:06;102256.78;;;13.20;49.23
38786;BME280;24535;45.508;12.252;2023-04-10T02:15:33;102263.03;;;13.19;48.64
38786;BME280;24535;45.508;12.252;2023-04-10T02:18:02;102261.50;;;13.15;48.83
38786;BME280;24535;45.508;12.252;2023-04-10T02:20:32;102265.13;;;13.12;49.29
38786;BME280;24535;45.508;12.252;2023-04-10T02:22:59;102257.28;;;13.10;49.19
38786;BME280;24535;45.508;12.252;2023-04-10T02:25:30;102263.53;;;13.09;48.54
38786;BME280;24535;45.508;12.252;2023-04-10T02:27:57;102261.81;;;13.08;50.62
38786;BME280;24535;45.508;12.252;2023-04-10T02:30:22;102262.91;;;13.04;49.45
38786;BME280;24535;45.508;12.252;2023-04-10T02:32:49;102259.66;;;12.99;49.62
38786;BME280;24535;45.508;12.252;2023-04-10T02:35:14;102260.69;;;12.97;50.28
38786;BME280;24535;45.508;12.252;2023-04-10T02:37:40;102265.88;;;12.98;50.78
38786;BME280;24535;45.508;12.252;2023-04-10T02:40:07;102258.94;;;12.96;50.18
38786;BME280;24535;45.508;12.252;2023-04-10T02:42:32;102273.03;;;12.96;50.42
38786;BME280;24535;45.508;12.252;2023-04-10T02:44:58;102266.88;;;12.96;50.92
38786;BME280;24535;45.508;12.252;2023-04-10T02:47:23;102270.47;;;12.95;50.84
38786;BME280;24535;45.508;12.252;2023-04-10T02:49:49;102280.34;;;12.91;50.53
38786;BME280;24535;45.508;12.252;2023-04-10T02:52:14;102280.44;;;12.90;49.28
38786;BME280;24535;45.508;12.252;2023-04-10T02:54:41;102281.44;;;12.87;49.72
38786;BME280;24535;45.508;12.252;2023-04-10T02:57:06;102281.69;;;12.82;49.44
38786;BME280;24535;45.508;12.252;2023-04-10T02:59:32;102275.53;;;12.82;50.00
38786;BME280;24535;45.508;12.252;2023-04-10T03:01:58;102279.28;;;12.78;49.86
38786;BME280;24535;45.508;12.252;2023-04-10T03:04:23;102273.28;;;12.74;49.75
38786;BME280;24535;45.508;12.252;2023-04-10T03:06:49;102263.91;;;12.69;49.45
38786;BME280;24535;45.508;12.252;2023-04-10T03:09:14;102267.63;;;12.65;49.70
38786;BME280;24535;45.508;12.252;2023-04-10T03:11:40;102266.13;;;12.59;49.21
38786;BME280;24535;45.508;12.252;2023-04-10T03:14:05;102269.09;;;12.53;48.96
38786;BME280;24535;45.508;12.252;2023-04-10T03:16:31;102262.31;;;12.47;49.22
38786;BME280;24535;45.508;12.252;2023-04-10T03:18:56;102266.13;;;12.42;49.22
38786;BME280;24535;45.508;12.252;2023-04-10T03:21:22;102264.56;;;12.37;48.95
38786;BME280;24535;45.508;12.252;2023-04-10T03:23:47;102265.56;;;12.35;49.46
38786;BME280;24535;45.508;12.252;2023-04-10T03:26:13;102267.44;;;12.33;49.31
38786;BME280;24535;45.508;12.252;2023-04-10T03:28:38;102264.19;;;12.28;49.33
38786;BME280;24535;45.508;12.252;2023-04-10T03:31:05;102268.78;;;12.24;49.27
38786;BME280;24535;45.508;12.252;2023-04-10T03:33:31;102265.31;;;12.22;49.14
38786;BME280;24535;45.508;12.252;2023-04-10T03:35:56;102258.44;;;12.20;49.56
38786;BME280;24535;45.508;12.252;2023-04-10T03:38:22;102264.47;;;12.22;49.22
38786;BME280;24535;45.508;12.252;2023-04-10T03:40:47;102260.91;;;12.23;49.21
38786;BME280;24535;45.508;12.252;2023-04-10T03:43:13;102257.16;;;12.27;49.29
38786;BME280;24535;45.508;12.252;2023-04-10T03:45:38;102257.16;;;12.27;49.25
38786;BME280;24535;45.508;12.252;2023-04-10T03:48:04;102268.41;;;12.32;49.54
38786;BME280;24535;45.508;12.252;2023-04-10T03:50:29;102267.44;;;12.33;48.62
38786;BME280;24535;45.508;12.252;2023-04-10T03:52:55;102276.16;;;12.35;49.05
38786;BME280;24535;45.508;12.252;2023-04-10T03:55:21;102273.50;;;12.35;49.54
38786;BME280;24535;45.508;12.252;2023-04-10T03:57:46;102275.16;;;12.37;48.99
38786;BME280;24535;45.508;12.252;2023-04-10T04:00:13;102275.00;;;12.41;49.61
38786;BME280;24535;45.508;12.252;2023-04-10T04:02:40;102270.63;;;12.40;48.96
38786;BME280;24535;45.508;12.252;2023-04-10T04:05:06;102275.06;;;12.39;49.48
38786;BME280;24535;45.508;12.252;2023-04-10T04:07:31;102276.09;;;12.36;49.10
38786;BME280;24535;45.508;12.252;2023-04-10T04:09:57;102279.72;;;12.34;49.16
38786;BME280;24535;45.508;12.252;2023-04-10T04:12:23;102283.44;;;12.30;49.66
38786;BME280;24535;45.508;12.252;2023-04-10T04:14:48;102284.63;;;12.24;49.74
38786;BME280;24535;45.508;12.252;2023-04-10T04:17:14;102283.81;;;12.22;49.69
38786;BME280;24535;45.508;12.252;2023-04-10T04:19:40;102298.59;;;12.26;49.89
38786;BME280;24535;45.508;12.252;2023-04-10T04:22:05;102291.53;;;12.27;50.47
38786;BME280;24535;45.508;12.252;2023-04-10T04:24:30;102293.31;;;12.26;49.48
38786;BME280;24535;45.508;12.252;2023-04-10T04:26:56;102296.19;;;12.22;49.23
38786;BME280;24535;45.508;12.252;2023-04-10T04:29:21;102301.59;;;12.19;49.21
38786;BME280;24535;45.508;12.252;2023-04-10T04:31:47;102297.50;;;12.13;49.67
38786;BME280;24535;45.508;12.252;2023-04-10T04:34:12;102303.72;;;12.12;49.67
38786;BME280;24535;45.508;12.252;2023-04-10T04:36:38;102298.47;;;12.10;49.80
38786;BME280;24535;45.508;12.252;2023-04-10T04:39:03;102302.78;;;12.13;49.49
38786;BME280;24535;45.508;12.252;2023-04-10T04:41:29;102306.41;;;12.10;50.17
38786;BME280;24535;45.508;12.252;2023-04-10T04:43:57;102315.25;;;12.09;49.93
38786;BME280;24535;45.508;12.252;2023-04-10T04:46:23;102308.41;;;12.05;49.51
38786;BME280;24535;45.508;12.252;2023-04-10T04:48:48;102315.50;;;12.05;50.23
38786;BME280;24535;45.508;12.252;2023-04-10T04:51:14;102311.19;;;12.02;50.21
38786;BME280;24535;45.508;12.252;2023-04-10T04:53:39;102318.34;;;12.00;49.61
38786;BME280;24535;45.508;12.252;2023-04-10T04:56:05;102319.28;;;11.99;50.20
38786;BME280;24535;45.508;12.252;2023-04-10T04:58:30;102319.28;;;11.99;50.36
38786;BME280;24535;45.508;12.252;2023-04-10T05:00:56;102329.56;;;12.05;51.10
38786;BME280;24535;45.508;12.252;2023-04-10T05:03:21;102323.19;;;12.09;50.59
38786;BME280;24535;45.508;12.252;2023-04-10T05:05:47;102328.34;;;12.12;50.83
38786;BME280;24535;45.508;12.252;2023-04-10T05:08:12;102328.13;;;12.17;50.80
38786;BME280;24535;45.508;12.252;2023-04-10T05:10:38;102328.69;;;12.24;50.58
38786;BME280;24535;45.508;12.252;2023-04-10T05:13:03;102330.38;;;12.25;51.05
38786;BME280;24535;45.508;12.252;2023-04-10T05:15:28;102333.03;;;12.25;50.66
38786;BME280;24535;45.508;12.252;2023-04-10T05:17:54;102329.38;;;12.27;50.99
38786;BME280;24535;45.508;12.252;2023-04-10T05:20:20;102336.44;;;12.27;50.50
38786;BME280;24535;45.508;12.252;2023-04-10T05:22:46;102340.03;;;12.26;50.33
38786;BME280;24535;45.508;12.252;2023-04-10T05:25:12;102346.25;;;12.25;50.80
38786;BME280;24535;45.508;12.252;2023-04-10T05:27:37;102342.88;;;12.21;50.55
38786;BME280;24535;45.508;12.252;2023-04-10T05:30:03;102351.03;;;12.17;50.63
38786;BME280;24535;45.508;12.252;2023-04-10T05:32:28;102342.03;;;12.21;51.19
38786;BME280;24535;45.508;12.252;2023-04-10T05:34:54;102345.31;;;12.26;50.95
38786;BME280;24535;45.508;12.252;2023-04-10T05:37:19;102355.59;;;12.32;50.35
38786;BME280;24535;45.508;12.252;2023-04-10T05:39:47;102359.50;;;12.42;51.80
38786;BME280;24535;45.508;12.252;2023-04-10T05:42:15;102358.59;;;12.60;50.99
38786;BME280;24535;45.508;12.252;2023-04-10T05:44:41;102356.81;;;12.78;50.35
38786;BME280;24535;45.508;12.252;2023-04-10T05:47:06;102361.41;;;12.92;49.83
38786;BME280;24535;45.508;12.252;2023-04-10T05:49:32;102371.44;;;13.03;50.08
38786;BME280;24535;45.508;12.252;2023-04-10T05:51:57;102372.53;;;13.16;51.15
38786;BME280;24535;45.508;12.252;2023-04-10T05:54:23;102373.78;;;13.44;50.78
38786;BME280;24535;45.508;12.252;2023-04-10T05:56:48;102364.66;;;13.82;50.49
38786;BME280;24535;45.508;12.252;2023-04-10T05:59:14;102371.69;;;14.31;50.04
38786;BME280;24535;45.508;12.252;2023-04-10T06:01:41;102362.25;;;14.73;49.28
38786;BME280;24535;45.508;12.252;2023-04-10T06:04:06;102366.72;;;15.17;48.83
38786;BME280;24535;45.508;12.252;2023-04-10T06:06:32;102368.94;;;15.53;47.94
38786;BME280;24535;45.508;12.252;2023-04-10T06:08:59;102370.38;;;15.87;47.70
38786;BME280;24535;45.508;12.252;2023-04-10T06:11:24;102363.00;;;16.19;47.47
38786;BME280;24535;45.508;12.252;2023-04-10T06:13:50;102375.66;;;16.43;46.33
38786;BME280;24535;45.508;12.252;2023-04-10T06:16:15;102368.50;;;16.58;45.37
38786;BME280;24535;45.508;12.252;2023-04-10T06:18:41;102374.69;;;16.71;45.46
38786;BME280;24535;45.508;12.252;2023-04-10T06:21:07;102374.75;;;16.84;44.89
38786;BME280;24535;45.508;12.252;2023-04-10T06:23:33;102380.53;;;16.90;44.27
38786;BME280;24535;45.508;12.252;2023-04-10T06:25:59;102380.63;;;16.89;43.98
38786;BME280;24535;45.508;12.252;2023-04-10T06:28:25;102378.47;;;16.81;44.11
38786;BME280;24535;45.508;12.252;2023-04-10T06:30:51;102384.50;;;16.70;44.21
38786;BME280;24535;45.508;12.252;2023-04-10T06:33:16;102372.84;;;16.59;44.46
38786;BME280;24535;45.508;12.252;2023-04-10T06:35:42;102375.81;;;16.54;44.45
38786;BME280;24535;45.508;12.252;2023-04-10T06:38:07;102376.13;;;16.49;44.37
38786;BME280;24535;45.508;12.252;2023-04-10T06:40:33;102378.97;;;16.46;43.57
38786;BME280;24535;45.508;12.252;2023-04-10T06:43:00;102373.13;;;16.41;43.88
38786;BME280;24535;45.508;12.252;2023-04-10T06:45:26;102374.34;;;16.36;43.83
38786;BME280;24535;45.508;12.252;2023-04-10T06:47:52;102366.97;;;16.26;42.72
38786;BME280;24535;45.508;12.252;2023-04-10T06:50:17;102363.00;;;16.19;42.93
38786;BME280;24535;45.508;12.252;2023-04-10T06:52:44;102372.97;;;16.16;42.92
38786;BME280;24535;45.508;12.252;2023-04-10T06:55:10;102369.09;;;16.07;42.96
38786;BME280;24535;45.508;12.252;2023-04-10T06:57:37;102364.28;;;15.99;42.94
38786;BME280;24535;45.508;12.252;2023-04-10T07:00:04;102368.56;;;16.02;43.47
38786;BME280;24535;45.508;12.252;2023-04-10T07:02:30;102359.03;;;16.12;42.89
38786;BME280;24535;45.508;12.252;2023-04-10T07:04:55;102360.34;;;16.19;42.99
38786;BME280;24535;45.508;12.252;2023-04-10T07:07:21;102358.44;;;16.21;43.10
38786;BME280;24535;45.508;12.252;2023-04-10T07:09:46;102357.38;;;16.24;42.76
38786;BME280;24535;45.508;12.252;2023-04-10T07:12:12;102349.88;;;16.30;41.93
38786;BME280;24535;45.508;12.252;2023-04-10T07:14:37;102355.22;;;16.43;42.51
38786;BME280;24535;45.508;12.252;2023-04-10T07:17:03;102349.53;;;16.49;41.88
38786;BME280;24535;45.508;12.252;2023-04-10T07:19:28;102352.38;;;16.46;41.24
38786;BME280;24535;45.508;12.252;2023-04-10T07:21:54;102348.31;;;16.41;40.73
38786;BME280;24535;45.508;12.252;2023-04-10T07:24:20;102361.16;;;16.34;41.55
38786;BME280;24535;45.508;12.252;2023-04-10T07:26:45;102360.69;;;16.27;40.63
38786;BME280;24535;45.508;12.252;2023-04-10T07:29:11;102354.47;;;16.14;40.46
38786;BME280;24535;45.508;12.252;2023-04-10T07:31:38;102367.53;;;16.04;41.09
38786;BME280;24535;45.508;12.252;2023-04-10T07:34:03;102362.56;;;15.98;40.92
38786;BME280;24535;45.508;12.252;2023-04-10T07:36:29;102362.88;;;15.94;41.32
38786;BME280;24535;45.508;12.252;2023-04-10T07:38:54;102361.06;;;15.94;40.77
38786;BME280;24535;45.508;12.252;2023-04-10T07:41:20;102360.41;;;15.91;41.04
38786;BME280;24535;45.508;12.252;2023-04-10T07:43:46;102365.72;;;15.91;40.80
38786;BME280;24535;45.508;12.252;2023-04-10T07:46:12;102356.88;;;15.90;41.39
38786;BME280;24535;45.508;12.252;2023-04-10T07:48:37;102364.19;;;16.01;40.92
38786;BME280;24535;45.508;12.252;2023-04-10T07:51:03;102359.78;;;16.14;40.92
38786;BME280;24535;45.508;12.252;2023-04-10T07:53:29;102360.84;;;16.39;41.16
38786;BME280;24535;45.508;12.252;2023-04-10T07:55:55;102361.47;;;16.84;41.29
38786;BME280;24535;45.508;12.252;2023-04-10T07:58:20;102365.03;;;17.35;40.96
38786;BME280;24535;45.508;12.252;2023-04-10T08:00:46;102360.97;;;17.81;39.06
38786;BME280;24535;45.508;12.252;2023-04-10T08:03:13;102363.47;;;18.08;37.77
38786;BME280;24535;45.508;12.252;2023-04-10T08:05:39;102371.31;;;18.22;38.39
38786;BME280;24535;45.508;12.252;2023-04-10T08:08:05;102365.81;;;18.36;37.96
38786;BME280;24535;45.508;12.252;2023-04-10T08:10:30;102370.53;;;18.57;37.86
38786;BME280;24535;45.508;12.252;2023-04-10T08:12:56;102372.38;;;18.80;37.59
38786;BME280;24535;45.508;12.252;2023-04-10T08:15:21;102372.69;;;19.11;37.65
38786;BME280;24535;45.508;12.252;2023-04-10T08:17:47;102368.97;;;19.47;37.23
38786;BME280;24535;45.508;12.252;2023-04-10T08:20:12;102374.34;;;19.81;36.94
38786;BME280;24535;45.508;12.252;2023-04-10T08:22:38;102368.13;;;20.03;37.09
38786;BME280;24535;45.508;12.252;2023-04-10T08:25:04;102371.72;;;20.24;36.67
38786;BME280;24535;45.508;12.252;2023-04-10T08:27:29;102366.13;;;20.38;36.96
38786;BME280;24535;45.508;12.252;2023-04-10T08:29:55;102380.03;;;20.64;37.09
38786;BME280;24535;45.508;12.252;2023-04-10T08:32:21;102387.44;;;20.93;36.98
38786;BME280;24535;45.508;12.252;2023-04-10T08:34:48;102376.81;;;21.23;36.76
38786;BME280;24535;45.508;12.252;2023-04-10T08:37:13;102379.28;;;21.57;36.68
38786;BME280;24535;45.508;12.252;2023-04-10T08:39:40;102368.22;;;21.91;36.29
38786;BME280;24535;45.508;12.252;2023-04-10T08:42:06;102364.22;;;22.16;35.27
38786;BME280;24535;45.508;12.252;2023-04-10T08:44:31;102362.28;;;22.37;34.56
38786;BME280;24535;45.508;12.252;2023-04-10T08:46:59;102354.94;;;22.59;34.31
38786;BME280;24535;45.508;12.252;2023-04-10T08:52:00;102352.66;;;22.83;33.66
38786;BME280;24535;45.508;12.252;2023-04-10T08:54:34;102356.06;;;22.85;34.36
38786;BME280;24535;45.508;12.252;2023-04-10T08:57:02;102357.19;;;22.83;33.73
38786;BME280;24535;45.508;12.252;2023-04-10T08:59:30;102354.66;;;22.81;33.35
38786;BME280;24535;45.508;12.252;2023-04-10T09:01:56;102354.34;;;22.84;33.55
38786;BME280;24535;45.508;12.252;2023-04-10T09:04:25;102357.38;;;22.91;32.79
38786;BME280;24535;45.508;12.252;2023-04-10T09:06:51;102347.59;;;23.00;33.65
38786;BME280;24535;45.508;12.252;2023-04-10T09:09:17;102353.50;;;23.13;33.80
38786;BME280;24535;45.508;12.252;2023-04-10T09:14:21;102350.28;;;23.47;32.04
38786;BME280;24535;45.508;12.252;2023-04-10T09:16:47;102350.09;;;23.58;32.32
38786;BME280;24535;45.508;12.252;2023-04-10T09:19:28;102349.91;;;23.69;30.58
38786;BME280;24535;45.508;12.252;2023-04-10T09:21:54;102349.63;;;23.72;31.98
38786;BME280;24535;45.508;12.252;2023-04-10T09:24:21;102342.97;;;23.76;32.06
38786;BME280;24535;45.508;12.252;2023-04-10T09:26:47;102343.97;;;23.75;32.51
38786;BME280;24535;45.508;12.252;2023-04-10T09:29:13;102345.34;;;23.79;31.75
38786;BME280;24535;45.508;12.252;2023-04-10T09:31:41;102342.03;;;23.85;32.02
38786;BME280;24535;45.508;12.252;2023-04-10T09:36:36;102348.91;;;23.98;32.01
38786;BME280;24535;45.508;12.252;2023-04-10T09:39:04;102343.25;;;24.01;31.37
38786;BME280;24535;45.508;12.252;2023-04-10T09:41:30;102347.47;;;24.03;31.24
38786;BME280;24535;45.508;12.252;2023-04-10T09:44:06;102345.09;;;24.00;29.43
38786;BME280;24535;45.508;12.252;2023-04-10T09:46:32;102347.84;;;23.90;30.25
38786;BME280;24535;45.508;12.252;2023-04-10T09:48:58;102341.94;;;23.77;30.00
38786;BME280;24535;45.508;12.252;2023-04-10T09:51:32;102340.75;;;23.62;30.16
38786;BME280;24535;45.508;12.252;2023-04-10T09:53:59;102341.94;;;23.40;30.58
38786;BME280;24535;45.508;12.252;2023-04-10T09:56:26;102336.78;;;23.19;30.83
38786;BME280;24535;45.508;12.252;2023-04-10T09:58:58;102337.25;;;22.95;31.02
38786;BME280;24535;45.508;12.252;2023-04-10T10:01:27;102330.88;;;22.77;31.41
38786;BME280;24535;45.508;12.252;2023-04-10T10:03:54;102331.34;;;22.53;31.58
38786;BME280;24535;45.508;12.252;2023-04-10T10:06:21;102332.03;;;22.35;31.54
38786;BME280;24535;45.508;12.252;2023-04-10T10:08:48;102333.84;;;22.15;32.19
38786;BME280;24535;45.508;12.252;2023-04-10T10:11:17;102332.09;;;21.95;31.98
38786;BME280;24535;45.508;12.252;2023-04-10T10:13:49;102322.59;;;21.71;31.79
38786;BME280;24535;45.508;12.252;2023-04-10T10:21:35;102322.16;;;21.15;31.82
38786;BME280;24535;45.508;12.252;2023-04-10T10:24:02;102327.41;;;20.95;32.30
38786;BME280;24535;45.508;12.252;2023-04-10T10:26:29;102320.81;;;20.79;32.56
38786;BME280;24535;45.508;12.252;2023-04-10T10:28:57;102319.44;;;20.63;32.67
38786;BME280;24535;45.508;12.252;2023-04-10T10:31:24;102324.97;;;20.51;32.49
38786;BME280;24535;45.508;12.252;2023-04-10T10:33:53;102309.31;;;20.35;32.85
38786;BME280;24535;45.508;12.252;2023-04-10T10:36:21;102310.19;;;20.24;33.03
38786;BME280;24535;45.508;12.252;2023-04-10T10:38:57;102306.69;;;20.12;33.90
38786;BME280;24535;45.508;12.252;2023-04-10T10:41:32;102300.41;;;20.02;33.88
38786;BME280;24535;45.508;12.252;2023-04-10T10:44:18;102299.59;;;19.90;34.64
38786;BME280;24535;45.508;12.252;2023-04-10T10:46:52;102295.22;;;19.78;34.56
38786;BME280;24535;45.508;12.252;2023-04-10T10:49:52;102293.16;;;19.70;34.84
38786;BME280;24535;45.508;12.252;2023-04-10T10:52:37;102289.63;;;19.59;35.79
38786;BME280;24535;45.508;12.252;2023-04-10T10:57:49;102284.03;;;19.39;34.08
38786;BME280;24535;45.508;12.252;2023-04-10T11:05:59;102271.03;;;19.23;34.70
38786;BME280;24535;45.508;12.252;2023-04-10T11:11:02;102263.06;;;19.12;34.25
38786;BME280;24535;45.508;12.252;2023-04-10T11:13:32;102264.84;;;19.12;34.16
38786;BME280;24535;45.508;12.252;2023-04-10T11:15:59;102262.44;;;19.09;34.42
38786;BME280;24535;45.508;12.252;2023-04-10T11:31:37;102241.50;;;18.91;34.18
38786;BME280;24535;45.508;12.252;2023-04-10T11:34:04;102224.88;;;18.88;34.30
38786;BME280;24535;45.508;12.252;2023-04-10T11:36:31;102231.81;;;18.90;34.63
38786;BME280;24535;45.508;12.252;2023-04-10T11:39:03;102232.78;;;18.89;34.20
38786;BME280;24535;45.508;12.252;2023-04-10T11:41:37;102234.47;;;18.90;34.31
38786;BME280;24535;45.508;12.252;2023-04-10T11:44:08;102228.44;;;18.88;34.63
38786;BME280;24535;45.508;12.252;2023-04-10T11:46:41;102228.66;;;18.85;35.49
38786;BME280;24535;45.508;12.252;2023-04-10T11:49:08;102227.19;;;18.81;36.03
38786;BME280;24535;45.508;12.252;2023-04-10T11:51:35;102232.16;;;18.74;36.12
38786;BME280;24535;45.508;12.252;2023-04-10T11:54:08;102226.94;;;18.73;36.09
38786;BME280;24535;45.508;12.252;2023-04-10T11:56:35;102225.25;;;18.72;36.32
38786;BME280;24535;45.508;12.252;2023-04-10T11:59:01;102217.25;;;18.72;36.10
38786;BME280;24535;45.508;12.252;2023-04-10T12:01:32;102214.56;;;18.72;35.17
38786;BME280;24535;45.508;12.252;2023-04-10T12:03:58;102222.59;;;18.72;35.63
38786;BME280;24535;45.508;12.252;2023-04-10T12:06:24;102208.69;;;18.67;36.33
38786;BME280;24535;45.508;12.252;2023-04-10T12:08:50;102219.50;;;18.65;36.25
38786;BME280;24535;45.508;12.252;2023-04-10T12:11:20;102209.88;;;18.63;36.04
38786;BME280;24535;45.508;12.252;2023-04-10T12:13:47;102210.75;;;18.63;35.99
38786;BME280;24535;45.508;12.252;2023-04-10T12:16:13;102212.56;;;18.63;36.07
38786;BME280;24535;45.508;12.252;2023-04-10T12:18:39;102203.72;;;18.62;36.03
38786;BME280;24535;45.508;12.252;2023-04-10T12:21:05;102194.00;;;18.61;36.33
38786;BME280;24535;45.508;12.252;2023-04-10T12:23:36;102198.28;;;18.64;36.25
38786;BME280;24535;45.508;12.252;2023-04-10T12:26:16;102193.16;;;18.61;35.64
38786;BME280;24535;45.508;12.252;2023-04-10T12:28:56;102190.50;;;18.61;35.66
38786;BME280;24535;45.508;12.252;2023-04-10T12:31:31;102178.34;;;18.57;35.84
38786;BME280;24535;45.508;12.252;2023-04-10T12:33:58;102175.69;;;18.57;35.90
38786;BME280;24535;45.508;12.252;2023-04-10T12:36:25;102174.09;;;18.54;35.83
38786;BME280;24535;45.508;12.252;2023-04-10T12:38:55;102176.75;;;18.54;35.52
38786;BME280;24535;45.508;12.252;2023-04-10T12:41:22;102177.75;;;18.53;35.02
38786;BME280;24535;45.508;12.252;2023-04-10T12:43:49;102174.22;;;18.52;35.77
38786;BME280;24535;45.508;12.252;2023-04-10T12:46:27;102191.94;;;18.53;35.81
38786;BME280;24535;45.508;12.252;2023-04-10T12:48:54;102185.34;;;18.46;35.46
38786;BME280;24535;45.508;12.252;2023-04-10T12:51:40;102177.34;;;18.46;35.09
38786;BME280;24535;45.508;12.252;2023-04-10T12:54:05;102168.72;;;18.43;35.34
38786;BME280;24535;45.508;12.252;2023-04-10T12:56:44;102174.94;;;18.43;36.43
38786;BME280;24535;45.508;12.252;2023-04-10T12:59:11;102165.22;;;18.42;35.43
38786;BME280;24535;45.508;12.252;2023-04-10T13:01:38;102172.38;;;18.42;35.68
38786;BME280;24535;45.508;12.252;2023-04-10T13:04:03;102161.81;;;18.40;35.43
38786;BME280;24535;45.508;12.252;2023-04-10T13:06:29;102162.53;;;18.42;35.41
38786;BME280;24535;45.508;12.252;2023-04-10T13:08:54;102159.03;;;18.42;36.29
38786;BME280;24535;45.508;12.252;2023-04-10T13:11:20;102162.44;;;18.44;35.39
38786;BME280;24535;45.508;12.252;2023-04-10T13:13:47;102155.28;;;18.44;36.34
38786;BME280;24535;45.508;12.252;2023-04-10T13:16:12;102153.59;;;18.43;35.41
38786;BME280;24535;45.508;12.252;2023-04-10T13:18:38;102150.91;;;18.43;36.06
38786;BME280;24535;45.508;12.252;2023-04-10T13:21:04;102147.50;;;18.41;36.25
38786;BME280;24535;45.508;12.252;2023-04-10T13:23:29;102150.91;;;18.43;36.27
38786;BME280;24535;45.508;12.252;2023-04-10T13:25:55;102144.72;;;18.43;36.05